sensor_id;sensor_type;location;lat;lon;timestamp;P1;durP1;ratioP1;P2;durP2;ratioP2
6053;SDS011;3055;50.886;14.814;2024-03-08T00:01:21;48.10;;;29.70;;
6053;SDS011;3055;50.886;14.814;2024-03-08T00:03:49;45.13;;;28.57;;
6053;SDS011;3055;50.886;14.814;2024-03-08T00:06:17;47.53;;;29.37;;
6053;SDS011;3055;50.886;14.814;2024-03-08T00:08:44;44.27;;;27.67;;
6053;SDS011;3055;50.886;14.814;2024-03-08T00:11:12;41.73;;;26.33;;
6053;SDS011;3055;50.886;14.814;2024-03-08T00:13:40;37.53;;;26.40;;
6053;SDS011;3055;50.886;14.814;2024-03-08T00:16:07;40.80;;;27.20;;
6053;SDS011;3055;50.886;14.814;2024-03-08T00:18:34;43.43;;;25.87;;
6053;SDS011;3055;50.886;14.814;2024-03-08T00:21:02;54.13;;;29.40;;
6053;SDS011;3055;50.886;14.814;2024-03-08T00:23:29;53.17;;;29.17;;
6053;SDS011;3055;50.886;14.814;2024-03-08T00:25:58;47.80;;;28.93;;
6053;SDS011;3055;50.886;14.814;2024-03-08T00:28:27;46.67;;;27.90;;
6053;SDS011;3055;50.886;14.814;2024-03-08T00:30:54;48.97;;;28.57;;
6053;SDS011;3055;50.886;14.814;2024-03-08T00:33:21;37.80;;;25.57;;
6053;SDS011;3055;50.886;14.814;2024-03-08T00:35:48;40.00;;;25.20;;
6053;SDS011;3055;50.886;14.814;2024-03-08T00:38:15;39.03;;;24.73;;
6053;SDS011;3055;50.886;14.814;2024-03-08T00:40:44;44.13;;;26.77;;
6053;SDS011;3055;50.886;14.814;2024-03-08T00:43:11;35.20;;;24.67;;
6053;SDS011;3055;50.886;14.814;2024-03-08T00:45:40;37.67;;;25.87;;
6053;SDS011;3055;50.886;14.814;2024-03-08T00:48:07;36.27;;;25.07;;
6053;SDS011;3055;50.886;14.814;2024-03-08T00:50:36;39.00;;;25.50;;
6053;SDS011;3055;50.886;14.814;2024-03-08T00:53:03;42.53;;;25.93;;
6053;SDS011;3055;50.886;14.814;2024-03-08T00:55:31;45.53;;;28.40;;
6053;SDS011;3055;50.886;14.814;2024-03-08T00:57:58;45.33;;;26.23;;
6053;SDS011;3055;50.886;14.814;2024-03-08T01:00:25;41.67;;;28.57;;
6053;SDS011;3055;50.886;14.814;2024-03-08T01:02:54;41.97;;;28.07;;
6053;SDS011;3055;50.886;14.814;2024-03-08T01:05:21;42.60;;;27.53;;
6053;SDS011;3055;50.886;14.814;2024-03-08T01:07:49;47.13;;;26.83;;
6053;SDS011;3055;50.886;14.814;2024-03-08T01:10:17;41.37;;;26.80;;
6053;SDS011;3055;50.886;14.814;2024-03-08T01:12:44;44.10;;;27.90;;
6053;SDS011;3055;50.886;14.814;2024-03-08T01:15:11;43.00;;;26.87;;
6053;SDS011;3055;50.886;14.814;2024-03-08T01:17:38;42.47;;;27.77;;
6053;SDS011;3055;50.886;14.814;2024-03-08T01:20:08;39.07;;;26.30;;
6053;SDS011;3055;50.886;14.814;2024-03-08T01:22:37;42.77;;;28.23;;
6053;SDS011;3055;50.886;14.814;2024-03-08T01:25:05;44.77;;;27.83;;
6053;SDS011;3055;50.886;14.814;2024-03-08T01:27:33;45.53;;;27.40;;
6053;SDS011;3055;50.886;14.814;2024-03-08T01:30:02;42.73;;;26.27;;
6053;SDS011;3055;50.886;14.814;2024-03-08T01:32:29;44.40;;;28.60;;
6053;SDS011;3055;50.886;14.814;2024-03-08T01:34:57;42.27;;;27.30;;
6053;SDS011;3055;50.886;14.814;2024-03-08T01:37:25;41.90;;;26.50;;
6053;SDS011;3055;50.886;14.814;2024-03-08T01:39:54;45.63;;;28.90;;
6053;SDS011;3055;50.886;14.814;2024-03-08T01:42:21;42.73;;;27.10;;
6053;SDS011;3055;50.886;14.814;2024-03-08T01:44:49;42.93;;;27.87;;
6053;SDS011;3055;50.886;14.814;2024-03-08T01:47:16;43.10;;;27.87;;
6053;SDS011;3055;50.886;14.814;2024-03-08T01:49:45;41.03;;;26.67;;
6053;SDS011;3055;50.886;14.814;2024-03-08T01:52:12;40.67;;;25.77;;
6053;SDS011;3055;50.886;14.814;2024-03-08T01:54:41;44.47;;;28.90;;
6053;SDS011;3055;50.886;14.814;2024-03-08T01:57:09;40.63;;;27.73;;
6053;SDS011;3055;50.886;14.814;2024-03-08T01:59:37;37.33;;;25.07;;
6053;SDS011;3055;50.886;14.814;2024-03-08T02:02:05;42.03;;;27.77;;
6053;SDS011;3055;50.886;14.814;2024-03-08T02:04:35;40.07;;;27.20;;
6053;SDS011;3055;50.886;14.814;2024-03-08T02:07:04;41.10;;;27.30;;
6053;SDS011;3055;50.886;14.814;2024-03-08T02:09:31;41.80;;;26.87;;
6053;SDS011;3055;50.886;14.814;2024-03-08T02:12:00;40.30;;;26.53;;
6053;SDS011;3055;50.886;14.814;2024-03-08T02:14:27;47.07;;;27.10;;
6053;SDS011;3055;50.886;14.814;2024-03-08T02:16:59;45.47;;;28.27;;
6053;SDS011;3055;50.886;14.814;2024-03-08T02:19:27;40.23;;;26.67;;
6053;SDS011;3055;50.886;14.814;2024-03-08T02:21:55;41.13;;;26.77;;
6053;SDS011;3055;50.886;14.814;2024-03-08T02:24:24;41.30;;;26.97;;
6053;SDS011;3055;50.886;14.814;2024-03-08T02:26:51;38.93;;;27.80;;
6053;SDS011;3055;50.886;14.814;2024-03-08T02:29:19;38.33;;;25.17;;
6053;SDS011;3055;50.886;14.814;2024-03-08T02:31:47;40.03;;;25.60;;
6053;SDS011;3055;50.886;14.814;2024-03-08T02:34:14;43.03;;;26.97;;
6053;SDS011;3055;50.886;14.814;2024-03-08T02:36:41;40.53;;;25.40;;
6053;SDS011;3055;50.886;14.814;2024-03-08T02:39:10;41.73;;;25.03;;
6053;SDS011;3055;50.886;14.814;2024-03-08T02:41:38;38.37;;;26.30;;
6053;SDS011;3055;50.886;14.814;2024-03-08T02:44:05;40.60;;;27.17;;
6053;SDS011;3055;50.886;14.814;2024-03-08T02:46:32;41.47;;;27.20;;
6053;SDS011;3055;50.886;14.814;2024-03-08T02:49:01;41.43;;;26.93;;
6053;SDS011;3055;50.886;14.814;2024-03-08T02:51:28;40.93;;;27.13;;
6053;SDS011;3055;50.886;14.814;2024-03-08T02:53:56;40.47;;;26.53;;
6053;SDS011;3055;50.886;14.814;2024-03-08T02:56:24;44.53;;;27.10;;
6053;SDS011;3055;50.886;14.814;2024-03-08T02:58:52;42.77;;;26.67;;
6053;SDS011;3055;50.886;14.814;2024-03-08T03:01:19;43.53;;;26.47;;
6053;SDS011;3055;50.886;14.814;2024-03-08T03:03:47;37.77;;;25.23;;
6053;SDS011;3055;50.886;14.814;2024-03-08T03:06:14;37.13;;;25.33;;
6053;SDS011;3055;50.886;14.814;2024-03-08T03:08:42;40.77;;;27.17;;
6053;SDS011;3055;50.886;14.814;2024-03-08T03:11:10;42.30;;;26.60;;
6053;SDS011;3055;50.886;14.814;2024-03-08T03:13:40;41.93;;;25.50;;
6053;SDS011;3055;50.886;14.814;2024-03-08T03:16:16;40.67;;;24.87;;
6053;SDS011;3055;50.886;14.814;2024-03-08T03:18:44;41.90;;;25.03;;
6053;SDS011;3055;50.886;14.814;2024-03-08T03:21:12;39.70;;;26.40;;
6053;SDS011;3055;50.886;14.814;2024-03-08T03:23:40;41.73;;;26.30;;
6053;SDS011;3055;50.886;14.814;2024-03-08T03:26:07;40.53;;;26.10;;
6053;SDS011;3055;50.886;14.814;2024-03-08T03:28:36;41.23;;;26.67;;
6053;SDS011;3055;50.886;14.814;2024-03-08T03:31:06;50.93;;;28.00;;
6053;SDS011;3055;50.886;14.814;2024-03-08T03:33:35;40.60;;;25.53;;
6053;SDS011;3055;50.886;14.814;2024-03-08T03:36:03;41.00;;;26.30;;
6053;SDS011;3055;50.886;14.814;2024-03-08T03:38:33;40.27;;;26.80;;
6053;SDS011;3055;50.886;14.814;2024-03-08T03:41:01;42.80;;;26.10;;
6053;SDS011;3055;50.886;14.814;2024-03-08T03:43:35;40.57;;;26.47;;
6053;SDS011;3055;50.886;14.814;2024-03-08T03:46:06;40.57;;;26.53;;
6053;SDS011;3055;50.886;14.814;2024-03-08T03:48:35;42.83;;;26.20;;
6053;SDS011;3055;50.886;14.814;2024-03-08T03:51:03;41.53;;;26.17;;
6053;SDS011;3055;50.886;14.814;2024-03-08T03:53:30;45.50;;;28.60;;
6053;SDS011;3055;50.886;14.814;2024-03-08T03:55:57;45.57;;;26.70;;
6053;SDS011;3055;50.886;14.814;2024-03-08T03:58:25;40.37;;;25.93;;
6053;SDS011;3055;50.886;14.814;2024-03-08T04:00:52;42.03;;;25.90;;
6053;SDS011;3055;50.886;14.814;2024-03-08T04:03:21;42.00;;;27.10;;
6053;SDS011;3055;50.886;14.814;2024-03-08T04:05:48;44.50;;;26.23;;
6053;SDS011;3055;50.886;14.814;2024-03-08T04:08:16;43.50;;;26.37;;
6053;SDS011;3055;50.886;14.814;2024-03-08T04:10:43;42.37;;;27.50;;
6053;SDS011;3055;50.886;14.814;2024-03-08T04:13:10;41.40;;;27.60;;
6053;SDS011;3055;50.886;14.814;2024-03-08T04:15:38;39.70;;;26.17;;
6053;SDS011;3055;50.886;14.814;2024-03-08T04:18:05;42.40;;;26.43;;
6053;SDS011;3055;50.886;14.814;2024-03-08T04:20:34;45.17;;;28.20;;
6053;SDS011;3055;50.886;14.814;2024-03-08T04:23:01;38.17;;;27.10;;
6053;SDS011;3055;50.886;14.814;2024-03-08T04:25:28;39.63;;;25.67;;
6053;SDS011;3055;50.886;14.814;2024-03-08T04:27:56;45.27;;;26.67;;
6053;SDS011;3055;50.886;14.814;2024-03-08T04:30:23;43.57;;;26.37;;
6053;SDS011;3055;50.886;14.814;2024-03-08T04:32:50;40.67;;;26.03;;
6053;SDS011;3055;50.886;14.814;2024-03-08T04:35:18;42.87;;;27.70;;
6053;SDS011;3055;50.886;14.814;2024-03-08T04:37:47;44.00;;;26.13;;
6053;SDS011;3055;50.886;14.814;2024-03-08T04:40:14;44.70;;;26.60;;
6053;SDS011;3055;50.886;14.814;2024-03-08T04:42:42;42.70;;;26.77;;
6053;SDS011;3055;50.886;14.814;2024-03-08T04:45:09;43.10;;;27.10;;
6053;SDS011;3055;50.886;14.814;2024-03-08T04:47:37;45.77;;;27.27;;
6053;SDS011;3055;50.886;14.814;2024-03-08T04:50:05;41.10;;;26.63;;
6053;SDS011;3055;50.886;14.814;2024-03-08T04:52:34;45.30;;;28.37;;
6053;SDS011;3055;50.886;14.814;2024-03-08T04:55:03;41.23;;;25.47;;
6053;SDS011;3055;50.886;14.814;2024-03-08T04:57:31;40.67;;;25.83;;
6053;SDS011;3055;50.886;14.814;2024-03-08T04:59:59;41.80;;;26.93;;
6053;SDS011;3055;50.886;14.814;2024-03-08T05:02:26;36.83;;;25.63;;
6053;SDS011;3055;50.886;14.814;2024-03-08T05:04:53;47.07;;;27.23;;
6053;SDS011;3055;50.886;14.814;2024-03-08T05:07:20;41.57;;;26.67;;
6053;SDS011;3055;50.886;14.814;2024-03-08T05:09:48;43.60;;;27.07;;
6053;SDS011;3055;50.886;14.814;2024-03-08T05:12:18;42.57;;;26.63;;
6053;SDS011;3055;50.886;14.814;2024-03-08T05:14:45;43.70;;;27.97;;
6053;SDS011;3055;50.886;14.814;2024-03-08T05:17:14;45.10;;;26.13;;
6053;SDS011;3055;50.886;14.814;2024-03-08T05:19:42;43.20;;;26.33;;
6053;SDS011;3055;50.886;14.814;2024-03-08T05:22:09;40.80;;;25.87;;
6053;SDS011;3055;50.886;14.814;2024-03-08T05:24:36;41.07;;;26.33;;
6053;SDS011;3055;50.886;14.814;2024-03-08T05:27:04;43.97;;;27.13;;
6053;SDS011;3055;50.886;14.814;2024-03-08T05:29:32;42.83;;;26.37;;
6053;SDS011;3055;50.886;14.814;2024-03-08T05:31:59;41.23;;;28.83;;
6053;SDS011;3055;50.886;14.814;2024-03-08T05:34:28;48.07;;;27.73;;
6053;SDS011;3055;50.886;14.814;2024-03-08T05:36:55;41.97;;;27.23;;
6053;SDS011;3055;50.886;14.814;2024-03-08T05:39:23;40.17;;;27.07;;
6053;SDS011;3055;50.886;14.814;2024-03-08T05:41:51;41.57;;;28.23;;
6053;SDS011;3055;50.886;14.814;2024-03-08T05:44:20;43.57;;;28.93;;
6053;SDS011;3055;50.886;14.814;2024-03-08T05:46:48;48.57;;;29.10;;
6053;SDS011;3055;50.886;14.814;2024-03-08T05:49:16;49.87;;;30.20;;
6053;SDS011;3055;50.886;14.814;2024-03-08T05:51:43;49.67;;;29.13;;
6053;SDS011;3055;50.886;14.814;2024-03-08T05:54:13;52.20;;;32.13;;
6053;SDS011;3055;50.886;14.814;2024-03-08T05:56:41;49.50;;;30.47;;
6053;SDS011;3055;50.886;14.814;2024-03-08T05:59:09;54.80;;;31.07;;
6053;SDS011;3055;50.886;14.814;2024-03-08T06:01:36;50.47;;;29.00;;
6053;SDS011;3055;50.886;14.814;2024-03-08T06:04:07;47.07;;;28.23;;
6053;SDS011;3055;50.886;14.814;2024-03-08T06:06:34;51.80;;;30.07;;
6053;SDS011;3055;50.886;14.814;2024-03-08T06:09:03;55.20;;;30.00;;
6053;SDS011;3055;50.886;14.814;2024-03-08T06:11:34;51.00;;;29.23;;
6053;SDS011;3055;50.886;14.814;2024-03-08T06:14:02;48.97;;;29.20;;
6053;SDS011;3055;50.886;14.814;2024-03-08T06:16:31;49.70;;;30.47;;
6053;SDS011;3055;50.886;14.814;2024-03-08T06:18:58;49.93;;;30.90;;
6053;SDS011;3055;50.886;14.814;2024-03-08T06:21:28;52.53;;;31.77;;
6053;SDS011;3055;50.886;14.814;2024-03-08T06:23:56;54.20;;;31.20;;
6053;SDS011;3055;50.886;14.814;2024-03-08T06:26:24;52.33;;;31.27;;
6053;SDS011;3055;50.886;14.814;2024-03-08T06:28:53;51.33;;;30.70;;
6053;SDS011;3055;50.886;14.814;2024-03-08T06:31:21;53.20;;;31.80;;
6053;SDS011;3055;50.886;14.814;2024-03-08T06:33:48;53.17;;;33.27;;
6053;SDS011;3055;50.886;14.814;2024-03-08T06:36:15;57.63;;;33.57;;
6053;SDS011;3055;50.886;14.814;2024-03-08T06:38:45;54.33;;;32.50;;
6053;SDS011;3055;50.886;14.814;2024-03-08T06:41:13;45.93;;;31.63;;
6053;SDS011;3055;50.886;14.814;2024-03-08T06:43:41;57.37;;;32.50;;
6053;SDS011;3055;50.886;14.814;2024-03-08T06:46:08;53.13;;;31.97;;
6053;SDS011;3055;50.886;14.814;2024-03-08T06:48:37;49.53;;;31.63;;
6053;SDS011;3055;50.886;14.814;2024-03-08T06:51:05;55.33;;;30.67;;
6053;SDS011;3055;50.886;14.814;2024-03-08T06:53:32;50.67;;;31.60;;
6053;SDS011;3055;50.886;14.814;2024-03-08T06:56:02;50.97;;;31.30;;
6053;SDS011;3055;50.886;14.814;2024-03-08T06:58:30;45.00;;;28.13;;
6053;SDS011;3055;50.886;14.814;2024-03-08T07:00:57;54.30;;;31.40;;
6053;SDS011;3055;50.886;14.814;2024-03-08T07:03:26;49.53;;;32.07;;
6053;SDS011;3055;50.886;14.814;2024-03-08T07:05:54;52.43;;;30.97;;
6053;SDS011;3055;50.886;14.814;2024-03-08T07:08:23;52.17;;;32.20;;
6053;SDS011;3055;50.886;14.814;2024-03-08T07:10:52;49.17;;;29.90;;
6053;SDS011;3055;50.886;14.814;2024-03-08T07:13:21;48.50;;;29.43;;
6053;SDS011;3055;50.886;14.814;2024-03-08T07:15:48;43.33;;;29.50;;
6053;SDS011;3055;50.886;14.814;2024-03-08T07:18:17;46.60;;;29.73;;
6053;SDS011;3055;50.886;14.814;2024-03-08T07:20:44;45.90;;;29.63;;
6053;SDS011;3055;50.886;14.814;2024-03-08T07:23:12;55.40;;;32.97;;
6053;SDS011;3055;50.886;14.814;2024-03-08T07:25:59;46.13;;;29.77;;
6053;SDS011;3055;50.886;14.814;2024-03-08T07:28:28;43.97;;;28.63;;
6053;SDS011;3055;50.886;14.814;2024-03-08T07:30:56;43.57;;;28.87;;
6053;SDS011;3055;50.886;14.814;2024-03-08T07:33:37;45.90;;;28.93;;
6053;SDS011;3055;50.886;14.814;2024-03-08T07:36:05;42.53;;;29.60;;
6053;SDS011;3055;50.886;14.814;2024-03-08T07:38:32;41.33;;;29.00;;
6053;SDS011;3055;50.886;14.814;2024-03-08T07:40:59;53.30;;;29.90;;
6053;SDS011;3055;50.886;14.814;2024-03-08T07:43:28;44.87;;;29.27;;
6053;SDS011;3055;50.886;14.814;2024-03-08T07:45:55;40.27;;;28.57;;
6053;SDS011;3055;50.886;14.814;2024-03-08T07:48:22;43.57;;;28.00;;
6053;SDS011;3055;50.886;14.814;2024-03-08T07:50:51;45.00;;;28.73;;
6053;SDS011;3055;50.886;14.814;2024-03-08T07:53:18;43.10;;;27.53;;
6053;SDS011;3055;50.886;14.814;2024-03-08T07:55:45;37.77;;;28.00;;
6053;SDS011;3055;50.886;14.814;2024-03-08T07:58:12;43.17;;;26.87;;
6053;SDS011;3055;50.886;14.814;2024-03-08T08:00:41;40.70;;;25.50;;
6053;SDS011;3055;50.886;14.814;2024-03-08T08:03:08;42.67;;;29.13;;
6053;SDS011;3055;50.886;14.814;2024-03-08T08:05:35;47.67;;;29.83;;
6053;SDS011;3055;50.886;14.814;2024-03-08T08:08:04;43.37;;;28.73;;
6053;SDS011;3055;50.886;14.814;2024-03-08T08:10:32;47.43;;;31.17;;
6053;SDS011;3055;50.886;14.814;2024-03-08T08:12:59;44.57;;;29.27;;
6053;SDS011;3055;50.886;14.814;2024-03-08T08:15:26;45.27;;;30.03;;
6053;SDS011;3055;50.886;14.814;2024-03-08T08:17:56;42.80;;;28.33;;
6053;SDS011;3055;50.886;14.814;2024-03-08T08:20:23;46.47;;;29.57;;
6053;SDS011;3055;50.886;14.814;2024-03-08T08:22:51;49.13;;;30.93;;
6053;SDS011;3055;50.886;14.814;2024-03-08T08:25:20;45.40;;;29.03;;
6053;SDS011;3055;50.886;14.814;2024-03-08T08:27:49;52.10;;;30.13;;
6053;SDS011;3055;50.886;14.814;2024-03-08T08:30:17;42.97;;;28.40;;
6053;SDS011;3055;50.886;14.814;2024-03-08T08:32:45;50.63;;;31.73;;
6053;SDS011;3055;50.886;14.814;2024-03-08T08:35:15;44.77;;;30.90;;
6053;SDS011;3055;50.886;14.814;2024-03-08T08:37:43;48.23;;;30.13;;
6053;SDS011;3055;50.886;14.814;2024-03-08T08:40:11;43.57;;;28.13;;
6053;SDS011;3055;50.886;14.814;2024-03-08T08:42:42;40.40;;;27.77;;
6053;SDS011;3055;50.886;14.814;2024-03-08T08:45:11;41.33;;;29.87;;
6053;SDS011;3055;50.886;14.814;2024-03-08T08:47:38;46.67;;;28.93;;
6053;SDS011;3055;50.886;14.814;2024-03-08T08:50:07;48.33;;;31.40;;
6053;SDS011;3055;50.886;14.814;2024-03-08T08:52:38;43.97;;;30.33;;
6053;SDS011;3055;50.886;14.814;2024-03-08T08:55:05;41.40;;;28.80;;
6053;SDS011;3055;50.886;14.814;2024-03-08T08:57:32;48.30;;;30.77;;
6053;SDS011;3055;50.886;14.814;2024-03-08T09:00:00;47.60;;;30.37;;
6053;SDS011;3055;50.886;14.814;2024-03-08T09:02:27;46.10;;;28.97;;
6053;SDS011;3055;50.886;14.814;2024-03-08T09:04:54;41.20;;;29.87;;
6053;SDS011;3055;50.886;14.814;2024-03-08T09:07:21;44.70;;;30.00;;
6053;SDS011;3055;50.886;14.814;2024-03-08T09:09:50;50.30;;;29.40;;
6053;SDS011;3055;50.886;14.814;2024-03-08T09:12:22;42.77;;;30.40;;
6053;SDS011;3055;50.886;14.814;2024-03-08T09:14:49;43.47;;;29.77;;
6053;SDS011;3055;50.886;14.814;2024-03-08T09:17:16;46.00;;;29.30;;
6053;SDS011;3055;50.886;14.814;2024-03-08T09:19:45;45.93;;;28.83;;
6053;SDS011;3055;50.886;14.814;2024-03-08T09:22:12;47.07;;;28.83;;
6053;SDS011;3055;50.886;14.814;2024-03-08T09:24:40;44.70;;;28.33;;
6053;SDS011;3055;50.886;14.814;2024-03-08T09:27:09;44.53;;;27.63;;
6053;SDS011;3055;50.886;14.814;2024-03-08T09:29:36;38.77;;;28.37;;
6053;SDS011;3055;50.886;14.814;2024-03-08T09:32:04;38.43;;;26.10;;
6053;SDS011;3055;50.886;14.814;2024-03-08T09:34:32;38.50;;;25.50;;
6053;SDS011;3055;50.886;14.814;2024-03-08T09:37:00;47.20;;;26.07;;
6053;SDS011;3055;50.886;14.814;2024-03-08T09:39:29;36.27;;;25.77;;
6053;SDS011;3055;50.886;14.814;2024-03-08T09:41:58;38.77;;;25.47;;
6053;SDS011;3055;50.886;14.814;2024-03-08T09:44:27;37.80;;;25.13;;
6053;SDS011;3055;50.886;14.814;2024-03-08T09:46:55;40.63;;;25.20;;
6053;SDS011;3055;50.886;14.814;2024-03-08T09:49:23;34.40;;;23.83;;
6053;SDS011;3055;50.886;14.814;2024-03-08T09:51:50;36.13;;;22.93;;
6053;SDS011;3055;50.886;14.814;2024-03-08T09:54:18;31.23;;;21.60;;
6053;SDS011;3055;50.886;14.814;2024-03-08T09:56:47;35.87;;;21.80;;
6053;SDS011;3055;50.886;14.814;2024-03-08T09:59:17;29.23;;;20.50;;
6053;SDS011;3055;50.886;14.814;2024-03-08T10:02:02;31.47;;;20.50;;
6053;SDS011;3055;50.886;14.814;2024-03-08T10:04:29;33.63;;;19.90;;
6053;SDS011;3055;50.886;14.814;2024-03-08T10:06:57;30.70;;;19.50;;
6053;SDS011;3055;50.886;14.814;2024-03-08T10:09:24;30.30;;;19.07;;
6053;SDS011;3055;50.886;14.814;2024-03-08T10:11:53;25.53;;;19.77;;
6053;SDS011;3055;50.886;14.814;2024-03-08T10:14:23;26.70;;;18.43;;
6053;SDS011;3055;50.886;14.814;2024-03-08T10:16:51;28.23;;;18.40;;
6053;SDS011;3055;50.886;14.814;2024-03-08T10:19:20;23.23;;;17.40;;
6053;SDS011;3055;50.886;14.814;2024-03-08T10:21:48;27.87;;;17.67;;
6053;SDS011;3055;50.886;14.814;2024-03-08T10:24:17;25.87;;;18.00;;
6053;SDS011;3055;50.886;14.814;2024-03-08T10:26:44;27.50;;;18.30;;
6053;SDS011;3055;50.886;14.814;2024-03-08T10:29:11;28.73;;;19.83;;
6053;SDS011;3055;50.886;14.814;2024-03-08T10:31:42;27.63;;;19.10;;
6053;SDS011;3055;50.886;14.814;2024-03-08T10:34:10;24.90;;;18.90;;
6053;SDS011;3055;50.886;14.814;2024-03-08T10:36:39;22.60;;;16.77;;
6053;SDS011;3055;50.886;14.814;2024-03-08T10:39:07;25.27;;;16.77;;
6053;SDS011;3055;50.886;14.814;2024-03-08T10:41:44;23.30;;;16.53;;
6053;SDS011;3055;50.886;14.814;2024-03-08T10:44:20;24.27;;;18.43;;
6053;SDS011;3055;50.886;14.814;2024-03-08T10:47:00;23.97;;;17.37;;
6053;SDS011;3055;50.886;14.814;2024-03-08T10:49:30;22.90;;;16.97;;
6053;SDS011;3055;50.886;14.814;2024-03-08T10:52:02;23.27;;;17.17;;
6053;SDS011;3055;50.886;14.814;2024-03-08T10:54:30;23.27;;;18.07;;
6053;SDS011;3055;50.886;14.814;2024-03-08T10:56:58;25.43;;;17.57;;
6053;SDS011;3055;50.886;14.814;2024-03-08T10:59:27;22.67;;;18.30;;
6053;SDS011;3055;50.886;14.814;2024-03-08T11:01:57;20.67;;;16.03;;
6053;SDS011;3055;50.886;14.814;2024-03-08T11:04:24;26.47;;;19.30;;
6053;SDS011;3055;50.886;14.814;2024-03-08T11:06:51;23.07;;;18.10;;
6053;SDS011;3055;50.886;14.814;2024-03-08T11:09:30;25.23;;;17.40;;
6053;SDS011;3055;50.886;14.814;2024-03-08T11:14:56;25.40;;;18.27;;
6053;SDS011;3055;50.886;14.814;2024-03-08T11:17:26;29.57;;;19.10;;
6053;SDS011;3055;50.886;14.814;2024-03-08T11:20:09;28.63;;;18.07;;
6053;SDS011;3055;50.886;14.814;2024-03-08T11:22:40;24.17;;;17.60;;
6053;SDS011;3055;50.886;14.814;2024-03-08T11:28:06;22.60;;;17.90;;
6053;SDS011;3055;50.886;14.814;2024-03-08T11:30:44;26.27;;;18.20;;
6053;SDS011;3055;50.886;14.814;2024-03-08T11:33:13;28.17;;;18.87;;
6053;SDS011;3055;50.886;14.814;2024-03-08T11:35:41;28.37;;;19.00;;
6053;SDS011;3055;50.886;14.814;2024-03-08T11:38:11;29.17;;;19.13;;
6053;SDS011;3055;50.886;14.814;2024-03-08T11:40:41;23.70;;;18.00;;
6053;SDS011;3055;50.886;14.814;2024-03-08T11:43:09;31.20;;;19.37;;
6053;SDS011;3055;50.886;14.814;2024-03-08T11:45:36;26.77;;;19.13;;
6053;SDS011;3055;50.886;14.814;2024-03-08T11:48:06;28.00;;;20.53;;
6053;SDS011;3055;50.886;14.814;2024-03-08T11:50:33;26.60;;;19.97;;
6053;SDS011;3055;50.886;14.814;2024-03-08T11:53:01;33.47;;;20.73;;
6053;SDS011;3055;50.886;14.814;2024-03-08T11:55:29;31.60;;;19.40;;
6053;SDS011;3055;50.886;14.814;2024-03-08T11:58:03;25.87;;;18.57;;
6053;SDS011;3055;50.886;14.814;2024-03-08T12:00:33;27.47;;;19.97;;
6053;SDS011;3055;50.886;14.814;2024-03-08T12:03:04;32.30;;;20.00;;
6053;SDS011;3055;50.886;14.814;2024-03-08T12:05:32;28.80;;;19.43;;
6053;SDS011;3055;50.886;14.814;2024-03-08T12:08:00;23.33;;;18.10;;
6053;SDS011;3055;50.886;14.814;2024-03-08T12:10:28;31.17;;;18.67;;
6053;SDS011;3055;50.886;14.814;2024-03-08T12:12:57;27.70;;;18.07;;
6053;SDS011;3055;50.886;14.814;2024-03-08T12:15:27;25.70;;;18.93;;
6053;SDS011;3055;50.886;14.814;2024-03-08T12:17:58;22.60;;;17.07;;
6053;SDS011;3055;50.886;14.814;2024-03-08T12:20:26;25.23;;;17.03;;
6053;SDS011;3055;50.886;14.814;2024-03-08T12:22:56;25.60;;;16.67;;
6053;SDS011;3055;50.886;14.814;2024-03-08T12:25:25;24.20;;;16.87;;
6053;SDS011;3055;50.886;14.814;2024-03-08T12:27:56;27.43;;;18.07;;
6053;SDS011;3055;50.886;14.814;2024-03-08T12:30:37;23.00;;;17.07;;
6053;SDS011;3055;50.886;14.814;2024-03-08T12:33:12;23.03;;;16.43;;
6053;SDS011;3055;50.886;14.814;2024-03-08T12:35:39;23.07;;;16.17;;
6053;SDS011;3055;50.886;14.814;2024-03-08T12:38:07;24.97;;;16.47;;
6053;SDS011;3055;50.886;14.814;2024-03-08T12:40:34;22.93;;;15.83;;
6053;SDS011;3055;50.886;14.814;2024-03-08T12:43:05;23.77;;;16.43;;
6053;SDS011;3055;50.886;14.814;2024-03-08T12:45:32;23.97;;;16.40;;
6053;SDS011;3055;50.886;14.814;2024-03-08T12:48:01;20.13;;;16.10;;
6053;SDS011;3055;50.886;14.814;2024-03-08T12:50:29;21.27;;;15.57;;
6053;SDS011;3055;50.886;14.814;2024-03-08T12:52:56;25.37;;;17.60;;
6053;SDS011;3055;50.886;14.814;2024-03-08T12:55:23;22.53;;;15.97;;
6053;SDS011;3055;50.886;14.814;2024-03-08T12:57:50;30.57;;;18.07;;
6053;SDS011;3055;50.886;14.814;2024-03-08T13:00:18;19.63;;;15.20;;
6053;SDS011;3055;50.886;14.814;2024-03-08T13:02:45;21.47;;;15.10;;
6053;SDS011;3055;50.886;14.814;2024-03-08T13:05:14;20.00;;;14.47;;
6053;SDS011;3055;50.886;14.814;2024-03-08T13:07:41;22.80;;;15.80;;
6053;SDS011;3055;50.886;14.814;2024-03-08T13:10:11;20.47;;;14.73;;
6053;SDS011;3055;50.886;14.814;2024-03-08T13:12:41;17.80;;;14.30;;
6053;SDS011;3055;50.886;14.814;2024-03-08T13:15:08;18.37;;;15.17;;
6053;SDS011;3055;50.886;14.814;2024-03-08T13:17:36;18.47;;;14.03;;
6053;SDS011;3055;50.886;14.814;2024-03-08T13:20:06;20.50;;;15.97;;
6053;SDS011;3055;50.886;14.814;2024-03-08T13:22:35;21.27;;;14.57;;
6053;SDS011;3055;50.886;14.814;2024-03-08T13:25:03;18.77;;;15.00;;
6053;SDS011;3055;50.886;14.814;2024-03-08T13:27:31;19.20;;;15.27;;
6053;SDS011;3055;50.886;14.814;2024-03-08T13:29:58;18.03;;;15.23;;
6053;SDS011;3055;50.886;14.814;2024-03-08T13:32:27;20.93;;;15.47;;
6053;SDS011;3055;50.886;14.814;2024-03-08T13:34:56;20.90;;;15.33;;
6053;SDS011;3055;50.886;14.814;2024-03-08T13:37:23;18.57;;;14.67;;
6053;SDS011;3055;50.886;14.814;2024-03-08T13:39:51;18.70;;;14.80;;
6053;SDS011;3055;50.886;14.814;2024-03-08T13:42:19;22.53;;;14.90;;
6053;SDS011;3055;50.886;14.814;2024-03-08T13:44:46;17.33;;;14.07;;
6053;SDS011;3055;50.886;14.814;2024-03-08T13:47:13;19.37;;;14.40;;
6053;SDS011;3055;50.886;14.814;2024-03-08T13:49:40;18.57;;;14.23;;
6053;SDS011;3055;50.886;14.814;2024-03-08T13:52:09;23.27;;;15.67;;
6053;SDS011;3055;50.886;14.814;2024-03-08T13:54:37;25.10;;;15.60;;
6053;SDS011;3055;50.886;14.814;2024-03-08T13:57:06;24.80;;;19.33;;
6053;SDS011;3055;50.886;14.814;2024-03-08T13:59:33;25.90;;;19.40;;
6053;SDS011;3055;50.886;14.814;2024-03-08T14:02:02;29.23;;;20.57;;
6053;SDS011;3055;50.886;14.814;2024-03-08T14:04:29;30.00;;;21.57;;
6053;SDS011;3055;50.886;14.814;2024-03-08T14:06:56;36.27;;;24.23;;
6053;SDS011;3055;50.886;14.814;2024-03-08T14:09:28;34.97;;;24.50;;
6053;SDS011;3055;50.886;14.814;2024-03-08T14:11:56;35.27;;;26.30;;
6053;SDS011;3055;50.886;14.814;2024-03-08T14:14:25;34.67;;;25.57;;
6053;SDS011;3055;50.886;14.814;2024-03-08T14:16:52;35.40;;;25.23;;
6053;SDS011;3055;50.886;14.814;2024-03-08T14:19:20;32.53;;;24.20;;
6053;SDS011;3055;50.886;14.814;2024-03-08T14:21:47;37.57;;;24.90;;
6053;SDS011;3055;50.886;14.814;2024-03-08T14:24:16;35.10;;;25.57;;
6053;SDS011;3055;50.886;14.814;2024-03-08T14:26:43;33.70;;;25.63;;
6053;SDS011;3055;50.886;14.814;2024-03-08T14:29:11;35.67;;;25.63;;
6053;SDS011;3055;50.886;14.814;2024-03-08T14:31:40;35.17;;;24.83;;
6053;SDS011;3055;50.886;14.814;2024-03-08T14:34:08;37.37;;;26.47;;
6053;SDS011;3055;50.886;14.814;2024-03-08T14:36:35;33.60;;;25.57;;
6053;SDS011;3055;50.886;14.814;2024-03-08T14:39:03;38.03;;;26.23;;
6053;SDS011;3055;50.886;14.814;2024-03-08T14:41:30;35.03;;;27.03;;
6053;SDS011;3055;50.886;14.814;2024-03-08T14:43:57;39.17;;;27.10;;
6053;SDS011;3055;50.886;14.814;2024-03-08T14:46:24;36.43;;;26.33;;